Time;durP1;ratioP1;P1;durP2;ratioP2;P2;SDS_P1;SDS_P2;PMS_P1;PMS_P2;Temp;Humidity;BMP_temperature;BMP_pressure;BME280_temperature;BME280_humidity;BME280_pressure;Samples;Min_cycle;Max_cycle;Signal;HPM_P1;HPM_P2
2021/11/30 00:00:28;;;;;;;11.00;2.00;;;;;;;;;;5111828;28;20091;-62
2021/11/30 00:02:55;;;;;;;7.88;1.50;;;;;;;;;;5109615;28;20491;-61
2021/11/30 00:05:21;;;;;;;8.35;1.52;;;;;;;;;;5111469;28;20043;-61
2021/11/30 00:07:51;;;;;;;6.90;1.75;;;;;;;;;;5110987;28;20036;-62
2021/11/30 00:12:45;;;;;;;8.57;1.90;;;;;;;;;;5109664;28;20047;-61
2021/11/30 00:15:11;;;;;;;13.65;2.25;;;;;;;;;;5109188;28;20380;-61
2021/11/30 00:17:37;;;;;;;7.90;2.05;;;;;;;;;;5108326;28;20047;-61
2021/11/30 00:20:04;;;;;;;15.13;1.90;;;;;;;;;;5092594;28;20066;-62
2021/11/30 00:22:32;;;;;;;13.27;2.78;;;;;;;;;;5110565;28;20042;-61
2021/11/30 00:24:58;;;;;;;8.55;2.33;;;;;;;;;;5109624;28;20044;-62
2021/11/30 00:27:25;;;;;;;14.25;3.88;;;;;;;;;;5107295;28;20127;-62
2021/11/30 00:29:51;;;;;;;15.63;3.47;;;;;;;;;;5088703;28;20044;-61
2021/11/30 00:32:18;;;;;;;11.18;2.40;;;;;;;;;;5110217;28;20046;-61
2021/11/30 00:34:44;;;;;;;12.52;2.47;;;;;;;;;;5110363;28;20031;-62
2021/11/30 00:37:10;;;;;;;14.63;2.72;;;;;;;;;;5092591;28;20454;-62
2021/11/30 00:39:36;;;;;;;13.70;3.30;;;;;;;;;;5110094;28;20028;-61
2021/11/30 00:42:03;;;;;;;16.92;2.90;;;;;;;;;;5111184;28;20069;-62
2021/11/30 00:44:34;;;;;;;11.90;2.72;;;;;;;;;;5110324;28;20102;-62
2021/11/30 00:47:00;;;;;;;16.70;3.47;;;;;;;;;;5110802;28;20046;-61
2021/11/30 00:49:27;;;;;;;14.30;2.00;;;;;;;;;;5109888;28;20406;-62
2021/11/30 00:51:54;;;;;;;19.38;3.95;;;;;;;;;;5109792;28;20063;-61
2021/11/30 00:54:21;;;;;;;10.07;2.25;;;;;;;;;;5111006;28;20043;-61
2021/11/30 00:56:49;;;;;;;18.08;2.50;;;;;;;;;;5108449;28;20409;-61
2021/11/30 00:59:15;;;;;;;14.93;2.72;;;;;;;;;;5101143;28;20116;-61
2021/11/30 01:01:41;;;;;;;18.48;2.63;;;;;;;;;;5086118;28;20108;-61
2021/11/30 01:04:10;;;;;;;14.75;2.65;;;;;;;;;;5110499;28;20036;-61
2021/11/30 01:06:37;;;;;;;15.20;2.63;;;;;;;;;;5110115;28;20050;-61
2021/11/30 01:09:05;;;;;;;16.00;3.22;;;;;;;;;;5110705;28;20053;-62
2021/11/30 01:11:31;;;;;;;10.13;3.17;;;;;;;;;;5110999;28;20109;-62
2021/11/30 01:13:57;;;;;;;15.48;3.55;;;;;;;;;;5091919;28;20126;-61
2021/11/30 01:16:24;;;;;;;21.48;4.53;;;;;;;;;;5092644;28;20482;-62
2021/11/30 01:18:50;;;;;;;16.05;4.07;;;;;;;;;;5092451;28;20039;-61
2021/11/30 01:21:16;;;;;;;17.27;3.75;;;;;;;;;;5104969;28;20436;-61
2021/11/30 01:23:42;;;;;;;17.40;4.45;;;;;;;;;;5107761;28;20036;-61
2021/11/30 01:26:08;;;;;;;19.88;4.53;;;;;;;;;;5109780;28;20162;-62
2021/11/30 01:28:35;;;;;;;18.05;5.22;;;;;;;;;;5109156;28;20463;-61
2021/11/30 01:31:02;;;;;;;11.88;4.82;;;;;;;;;;5110701;28;20096;-62
2021/11/30 01:33:29;;;;;;;21.55;5.57;;;;;;;;;;5094560;28;20089;-62
2021/11/30 01:35:55;;;;;;;15.60;5.10;;;;;;;;;;5113554;28;20089;-61
2021/11/30 01:38:24;;;;;;;17.92;4.90;;;;;;;;;;5094444;28;20055;-61
2021/11/30 01:40:50;;;;;;;15.55;5.53;;;;;;;;;;5112814;28;20096;-61
2021/11/30 01:43:21;;;;;;;18.38;6.07;;;;;;;;;;5114724;28;20454;-61
2021/11/30 01:45:58;;;;;;;16.38;6.05;;;;;;;;;;5114234;28;20048;-62
2021/11/30 01:50:53;;;;;;;19.75;7.50;;;;;;;;;;5092447;28;20131;-61
2021/11/30 01:53:19;;;;;;;17.65;7.53;;;;;;;;;;5093130;28;20040;-61
2021/11/30 01:55:46;;;;;;;16.90;7.07;;;;;;;;;;5090708;28;20400;-61
2021/11/30 01:58:13;;;;;;;15.55;8.15;;;;;;;;;;5093078;28;20449;-62
2021/11/30 02:00:40;;;;;;;20.58;8.50;;;;;;;;;;5093047;28;20055;-61
2021/11/30 02:03:07;;;;;;;18.90;9.05;;;;;;;;;;5088924;28;20032;-61
2021/11/30 02:05:34;;;;;;;19.25;9.80;;;;;;;;;;5082756;28;20533;-61
2021/11/30 02:08:01;;;;;;;18.08;10.23;;;;;;;;;;5090242;28;20054;-61
2021/11/30 02:10:28;;;;;;;22.88;10.43;;;;;;;;;;5092790;28;20040;-61
2021/11/30 02:12:55;;;;;;;33.95;12.20;;;;;;;;;;5093498;28;20044;-61
2021/11/30 02:15:23;;;;;;;27.98;12.98;;;;;;;;;;5093059;28;20375;-61
2021/11/30 02:17:51;;;;;;;26.73;14.02;;;;;;;;;;5093156;28;20115;-61
2021/11/30 02:20:17;;;;;;;30.10;13.73;;;;;;;;;;5093691;28;20043;-61
2021/11/30 02:22:50;;;;;;;33.70;15.68;;;;;;;;;;5093565;28;20052;-61
2021/11/30 02:25:16;;;;;;;32.95;13.88;;;;;;;;;;5088396;28;20233;-61
2021/11/30 02:27:43;;;;;;;33.83;15.07;;;;;;;;;;5090265;28;20082;-61
2021/11/30 02:30:09;;;;;;;28.50;14.00;;;;;;;;;;5091971;28;20131;-61
2021/11/30 02:32:35;;;;;;;28.42;15.07;;;;;;;;;;5092776;28;20052;-61
2021/11/30 02:35:02;;;;;;;26.95;14.65;;;;;;;;;;5090425;28;20048;-61
2021/11/30 02:37:36;;;;;;;31.50;15.55;;;;;;;;;;5092035;28;20117;-61
2021/11/30 02:40:02;;;;;;;35.17;15.30;;;;;;;;;;5092468;28;20184;-61
2021/11/30 02:42:29;;;;;;;29.55;15.52;;;;;;;;;;5092505;28;20066;-61
2021/11/30 02:44:55;;;;;;;29.52;14.23;;;;;;;;;;5091155;28;20044;-62
2021/11/30 02:47:24;;;;;;;28.67;14.82;;;;;;;;;;5092379;28;20456;-61
2021/11/30 02:49:50;;;;;;;26.23;13.48;;;;;;;;;;5093038;28;20441;-62
2021/11/30 02:52:18;;;;;;;29.88;14.57;;;;;;;;;;5111828;28;20048;-61
2021/11/30 02:54:46;;;;;;;30.67;13.60;;;;;;;;;;5112127;28;20463;-61
2021/11/30 02:57:13;;;;;;;25.75;14.05;;;;;;;;;;5108406;28;20573;-61
2021/11/30 02:59:41;;;;;;;23.27;12.75;;;;;;;;;;5111387;28;20050;-61
2021/11/30 03:02:12;;;;;;;29.67;13.30;;;;;;;;;;5112229;28;20087;-62
2021/11/30 03:04:40;;;;;;;24.05;12.82;;;;;;;;;;5111550;28;20467;-61
2021/11/30 03:07:10;;;;;;;21.58;11.32;;;;;;;;;;5110434;28;20050;-61
2021/11/30 03:09:36;;;;;;;25.30;11.68;;;;;;;;;;5093631;28;20049;-61
2021/11/30 03:12:03;;;;;;;22.85;10.32;;;;;;;;;;5110135;28;20126;-61
2021/11/30 03:14:29;;;;;;;27.95;10.00;;;;;;;;;;5105957;28;21399;-61
2021/11/30 03:16:55;;;;;;;21.48;9.50;;;;;;;;;;5106617;28;20573;-62
2021/11/30 03:19:22;;;;;;;24.33;10.07;;;;;;;;;;5107455;28;20082;-61
2021/11/30 03:21:48;;;;;;;23.83;11.00;;;;;;;;;;5103909;28;20086;-62
2021/11/30 03:24:15;;;;;;;26.10;11.27;;;;;;;;;;5108274;28;20113;-61
2021/11/30 03:26:41;;;;;;;22.10;11.80;;;;;;;;;;5103258;28;20074;-61
2021/11/30 03:29:07;;;;;;;32.47;14.73;;;;;;;;;;5106319;28;20150;-61
2021/11/30 03:31:46;;;;;;;47.40;14.57;;;;;;;;;;5104256;28;21021;-61
2021/11/30 03:34:15;;;;;;;41.10;15.55;;;;;;;;;;5103891;28;20494;-61
2021/11/30 03:36:42;;;;;;;39.80;14.57;;;;;;;;;;5106103;28;20062;-61
2021/11/30 03:39:10;;;;;;;44.78;14.00;;;;;;;;;;5103885;28;20044;-61
2021/11/30 03:41:36;;;;;;;40.30;13.77;;;;;;;;;;5102074;28;20482;-61
2021/11/30 03:44:04;;;;;;;27.30;9.55;;;;;;;;;;5106432;28;20040;-62
2021/11/30 03:46:31;;;;;;;35.88;9.43;;;;;;;;;;5106971;28;20782;-61
2021/11/30 03:48:57;;;;;;;22.23;6.20;;;;;;;;;;5105368;28;20044;-61
2021/11/30 03:51:24;;;;;;;20.95;4.70;;;;;;;;;;5104584;28;20066;-61
2021/11/30 03:53:50;;;;;;;18.88;3.60;;;;;;;;;;5105874;28;20046;-62
2021/11/30 03:56:16;;;;;;;18.00;4.63;;;;;;;;;;5104721;28;20062;-61
2021/11/30 03:58:42;;;;;;;17.70;3.85;;;;;;;;;;5108111;28;20043;-62
2021/11/30 04:01:09;;;;;;;17.58;2.45;;;;;;;;;;5103473;28;20051;-62
2021/11/30 04:03:35;;;;;;;23.95;2.72;;;;;;;;;;5100821;28;20576;-61
2021/11/30 04:06:02;;;;;;;19.23;3.10;;;;;;;;;;5099423;28;20431;-62
2021/11/30 04:08:29;;;;;;;16.05;2.67;;;;;;;;;;5102589;28;20050;-61
2021/11/30 04:10:55;;;;;;;20.52;2.55;;;;;;;;;;5083037;28;20051;-61
2021/11/30 04:13:21;;;;;;;22.25;3.55;;;;;;;;;;5100476;28;20128;-61
2021/11/30 04:15:47;;;;;;;23.98;2.35;;;;;;;;;;5100672;28;20032;-61
2021/11/30 04:18:13;;;;;;;27.70;3.17;;;;;;;;;;5081949;28;20048;-61
2021/11/30 04:20:40;;;;;;;20.88;3.35;;;;;;;;;;5083988;28;20118;-61
2021/11/30 04:23:06;;;;;;;29.27;3.53;;;;;;;;;;5104550;28;20110;-62
2021/11/30 04:25:32;;;;;;;30.27;4.28;;;;;;;;;;5103774;28;20040;-61
2021/11/30 04:27:58;;;;;;;22.45;3.85;;;;;;;;;;5082180;28;20051;-61
2021/11/30 04:30:25;;;;;;;27.48;4.03;;;;;;;;;;5100862;28;20036;-61
2021/11/30 04:32:52;;;;;;;32.00;5.75;;;;;;;;;;5081243;28;20063;-61
2021/11/30 04:35:18;;;;;;;29.92;4.05;;;;;;;;;;5098980;28;20036;-61
2021/11/30 04:37:44;;;;;;;24.88;3.72;;;;;;;;;;5100239;28;20067;-61
2021/11/30 04:40:12;;;;;;;29.45;4.18;;;;;;;;;;5082877;28;20820;-61
2021/11/30 04:42:41;;;;;;;24.48;3.75;;;;;;;;;;5098037;28;20044;-61
2021/11/30 04:45:11;;;;;;;17.25;2.78;;;;;;;;;;5099870;28;20385;-61
2021/11/30 04:47:39;;;;;;;26.20;3.08;;;;;;;;;;5083933;28;20105;-61
2021/11/30 04:50:11;;;;;;;26.10;3.30;;;;;;;;;;5098832;28;20122;-61
2021/11/30 04:52:39;;;;;;;28.20;3.72;;;;;;;;;;5085970;28;20547;-61
2021/11/30 04:55:05;;;;;;;21.02;3.67;;;;;;;;;;5101387;28;20092;-61
2021/11/30 04:57:32;;;;;;;19.63;3.13;;;;;;;;;;5100589;28;20186;-62
2021/11/30 04:59:58;;;;;;;21.55;3.00;;;;;;;;;;5102040;28;20039;-61
2021/11/30 05:02:24;;;;;;;24.23;3.03;;;;;;;;;;5099658;28;20043;-61
2021/11/30 05:04:51;;;;;;;23.00;4.13;;;;;;;;;;5100589;28;20044;-61
2021/11/30 05:07:17;;;;;;;17.27;2.63;;;;;;;;;;5104898;28;20040;-61
2021/11/30 05:09:44;;;;;;;19.63;2.97;;;;;;;;;;5090550;28;20116;-61
2021/11/30 05:12:11;;;;;;;20.88;2.88;;;;;;;;;;5087005;28;20078;-61
2021/11/30 05:14:37;;;;;;;22.35;2.83;;;;;;;;;;5108988;28;20048;-61
2021/11/30 05:17:04;;;;;;;24.38;2.63;;;;;;;;;;5104059;28;20440;-61
2021/11/30 05:19:30;;;;;;;33.72;4.70;;;;;;;;;;5104525;28;20032;-62
2021/11/30 05:21:56;;;;;;;24.23;2.58;;;;;;;;;;5105326;28;20047;-61
2021/11/30 05:24:22;;;;;;;28.20;3.10;;;;;;;;;;5086524;28;20036;-61
2021/11/30 05:26:49;;;;;;;34.88;5.78;;;;;;;;;;5103913;28;20458;-61
2021/11/30 05:29:16;;;;;;;29.73;3.63;;;;;;;;;;5088561;28;20504;-61
2021/11/30 05:31:42;;;;;;;25.48;3.60;;;;;;;;;;5104577;28;20458;-61
2021/11/30 05:34:09;;;;;;;25.90;4.95;;;;;;;;;;5104804;28;20122;-61
2021/11/30 05:36:35;;;;;;;30.20;5.13;;;;;;;;;;5105685;28;20051;-61
2021/11/30 05:39:03;;;;;;;41.08;5.82;;;;;;;;;;5109613;28;20418;-61
2021/11/30 05:41:29;;;;;;;27.58;4.07;;;;;;;;;;5108796;28;20043;-61
2021/11/30 05:43:55;;;;;;;20.60;3.67;;;;;;;;;;5108356;28;20067;-61
2021/11/30 05:46:21;;;;;;;33.88;3.25;;;;;;;;;;5106374;28;20063;-61
2021/11/30 05:48:48;;;;;;;17.60;3.13;;;;;;;;;;5103852;28;20035;-61
2021/11/30 05:51:14;;;;;;;24.48;3.78;;;;;;;;;;5103426;28;20055;-62
2021/11/30 05:53:40;;;;;;;23.92;3.67;;;;;;;;;;5110009;28;20161;-61
2021/11/30 05:56:08;;;;;;;25.55;4.07;;;;;;;;;;5112227;28;20118;-61
2021/11/30 05:58:38;;;;;;;33.90;3.95;;;;;;;;;;5110744;28;20075;-61
2021/11/30 06:01:12;;;;;;;24.70;3.20;;;;;;;;;;5088212;28;20051;-61
2021/11/30 06:03:56;;;;;;;23.80;2.97;;;;;;;;;;5089636;28;20048;-62
2021/11/30 06:06:22;;;;;;;25.23;4.28;;;;;;;;;;5109851;28;20118;-61
2021/11/30 06:08:49;;;;;;;21.13;3.28;;;;;;;;;;5107166;28;20036;-61
2021/11/30 06:11:15;;;;;;;26.33;3.80;;;;;;;;;;5107960;28;20043;-62
2021/11/30 06:13:41;;;;;;;22.38;4.57;;;;;;;;;;5111637;28;20036;-62
2021/11/30 06:16:07;;;;;;;31.45;5.00;;;;;;;;;;5110792;28;20481;-61
2021/11/30 06:18:33;;;;;;;27.67;3.53;;;;;;;;;;5110612;28;20069;-61
2021/11/30 06:21:00;;;;;;;20.75;3.72;;;;;;;;;;5110970;28;20046;-62
2021/11/30 06:23:26;;;;;;;21.45;3.35;;;;;;;;;;5090735;28;20040;-61
2021/11/30 06:25:52;;;;;;;43.42;4.63;;;;;;;;;;5111015;28;20047;-62
2021/11/30 06:28:18;;;;;;;36.17;4.18;;;;;;;;;;5111430;28;20071;-62
2021/11/30 06:30:45;;;;;;;29.05;4.18;;;;;;;;;;5109648;28;20067;-62
2021/11/30 06:33:12;;;;;;;22.77;3.35;;;;;;;;;;5092677;28;20052;-62
2021/11/30 06:35:38;;;;;;;23.17;3.60;;;;;;;;;;5109066;28;20039;-62
2021/11/30 06:38:05;;;;;;;30.10;3.90;;;;;;;;;;5111222;28;20046;-62
2021/11/30 06:40:32;;;;;;;26.58;3.75;;;;;;;;;;5094559;28;20149;-62
2021/11/30 06:42:58;;;;;;;18.80;2.65;;;;;;;;;;5094079;28;20040;-62
2021/11/30 06:45:24;;;;;;;30.83;4.70;;;;;;;;;;5093115;28;20056;-62
2021/11/30 06:47:50;;;;;;;23.00;4.97;;;;;;;;;;5094023;28;20036;-62
2021/11/30 06:50:17;;;;;;;24.27;4.88;;;;;;;;;;5074732;28;20044;-62
2021/11/30 06:52:43;;;;;;;27.73;3.97;;;;;;;;;;5093996;28;20113;-62
2021/11/30 06:55:11;;;;;;;25.13;4.20;;;;;;;;;;5075540;28;20180;-62
2021/11/30 06:57:37;;;;;;;34.42;4.22;;;;;;;;;;5093065;28;20123;-62
2021/11/30 07:00:05;;;;;;;28.63;4.10;;;;;;;;;;5093681;28;20479;-62
2021/11/30 07:02:32;;;;;;;27.45;4.22;;;;;;;;;;5093525;28;20087;-62
2021/11/30 07:05:05;;;;;;;35.33;6.15;;;;;;;;;;5092647;28;20097;-62
2021/11/30 07:07:38;;;;;;;29.83;4.15;;;;;;;;;;5075169;28;20052;-62
2021/11/30 07:10:23;;;;;;;35.30;3.38;;;;;;;;;;5094389;28;20419;-62
2021/11/30 07:13:02;;;;;;;24.30;3.65;;;;;;;;;;5108483;28;20118;-62
2021/11/30 07:15:29;;;;;;;34.90;4.80;;;;;;;;;;5110936;28;20091;-62
2021/11/30 07:17:57;;;;;;;24.65;3.95;;;;;;;;;;5108071;28;20040;-62
2021/11/30 07:20:23;;;;;;;36.30;5.40;;;;;;;;;;5107516;28;20487;-62
2021/11/30 07:22:49;;;;;;;30.52;4.53;;;;;;;;;;5101516;28;20105;-62
2021/11/30 07:25:16;;;;;;;28.38;3.83;;;;;;;;;;5101894;28;20051;-62
2021/11/30 07:27:43;;;;;;;24.08;3.80;;;;;;;;;;5103623;28;20039;-62
2021/11/30 07:30:09;;;;;;;27.02;5.25;;;;;;;;;;5100941;28;20356;-62
2021/11/30 07:32:35;;;;;;;28.13;4.13;;;;;;;;;;5104001;28;20108;-62
2021/11/30 07:35:05;;;;;;;23.95;2.92;;;;;;;;;;5106102;28;20451;-62
2021/11/30 07:37:31;;;;;;;24.80;2.78;;;;;;;;;;5112332;28;20103;-62
2021/11/30 07:39:58;;;;;;;15.10;2.95;;;;;;;;;;5110875;28;20035;-62
2021/11/30 07:42:26;;;;;;;16.42;3.28;;;;;;;;;;5093191;28;20070;-61
2021/11/30 07:44:52;;;;;;;14.55;2.35;;;;;;;;;;5093778;28;20051;-62
2021/11/30 07:47:18;;;;;;;21.77;3.92;;;;;;;;;;5111264;28;20051;-62
2021/11/30 07:49:44;;;;;;;37.03;3.40;;;;;;;;;;5111893;28;20097;-62
2021/11/30 07:52:12;;;;;;;20.73;2.88;;;;;;;;;;5093378;28;20069;-62
2021/11/30 07:54:38;;;;;;;21.58;3.15;;;;;;;;;;5111222;28;20058;-62
2021/11/30 07:57:05;;;;;;;15.65;1.83;;;;;;;;;;5111327;28;20044;-62
2021/11/30 07:59:32;;;;;;;15.32;2.17;;;;;;;;;;5091804;28;20127;-62
2021/11/30 08:01:58;;;;;;;13.77;2.25;;;;;;;;;;5110710;28;20055;-61
2021/11/30 08:04:25;;;;;;;8.95;2.03;;;;;;;;;;5093932;28;20043;-61
2021/11/30 08:06:51;;;;;;;10.55;1.13;;;;;;;;;;5111575;28;20043;-61
2021/11/30 08:09:17;;;;;;;9.50;0.95;;;;;;;;;;5110885;28;20023;-62
2021/11/30 08:11:43;;;;;;;9.75;1.40;;;;;;;;;;5111514;28;20397;-61
2021/11/30 08:14:11;;;;;;;8.38;1.33;;;;;;;;;;5111454;28;20051;-61
2021/11/30 08:16:38;;;;;;;9.73;2.17;;;;;;;;;;5110660;28;20100;-62
2021/11/30 08:19:04;;;;;;;7.28;1.10;;;;;;;;;;5111296;28;20075;-62
2021/11/30 08:21:30;;;;;;;8.60;1.20;;;;;;;;;;5093198;28;20052;-62
2021/11/30 08:23:57;;;;;;;8.52;1.23;;;;;;;;;;5110800;28;20395;-62
2021/11/30 08:26:23;;;;;;;7.82;1.23;;;;;;;;;;5087846;28;20052;-62
2021/11/30 08:28:49;;;;;;;11.80;1.33;;;;;;;;;;5110771;28;20462;-62
2021/11/30 08:31:15;;;;;;;8.32;1.75;;;;;;;;;;5092993;28;20062;-62
2021/11/30 08:33:42;;;;;;;10.60;2.20;;;;;;;;;;5108951;28;20099;-62
2021/11/30 08:36:08;;;;;;;14.68;2.22;;;;;;;;;;5110198;28;20066;-62
2021/11/30 08:38:34;;;;;;;9.88;1.60;;;;;;;;;;5105373;28;20036;-62
2021/11/30 08:41:00;;;;;;;18.63;3.13;;;;;;;;;;5110172;28;20390;-62
2021/11/30 08:43:27;;;;;;;15.65;2.47;;;;;;;;;;5086578;28;20050;-62
2021/11/30 08:45:54;;;;;;;16.58;2.63;;;;;;;;;;5109502;28;20100;-62
2021/11/30 08:48:22;;;;;;;11.10;2.10;;;;;;;;;;5110717;28;20059;-62
2021/11/30 08:50:48;;;;;;;10.77;1.17;;;;;;;;;;5105621;28;20055;-62
2021/11/30 08:53:17;;;;;;;23.90;1.83;;;;;;;;;;5092748;28;20120;-62
2021/11/30 08:55:43;;;;;;;12.70;1.95;;;;;;;;;;5106773;28;20398;-62
2021/11/30 08:58:09;;;;;;;12.65;1.60;;;;;;;;;;5110349;28;20032;-62
2021/11/30 09:00:37;;;;;;;18.30;2.22;;;;;;;;;;5106042;28;20085;-62
2021/11/30 09:03:03;;;;;;;9.57;1.83;;;;;;;;;;5110542;28;20043;-62
2021/11/30 09:05:30;;;;;;;11.23;1.85;;;;;;;;;;5106069;28;20032;-62
2021/11/30 09:07:56;;;;;;;16.17;2.65;;;;;;;;;;5109383;28;20035;-62
2021/11/30 09:10:23;;;;;;;16.10;1.80;;;;;;;;;;5089235;28;20036;-62
2021/11/30 09:12:49;;;;;;;22.35;2.38;;;;;;;;;;5106746;28;20459;-62
2021/11/30 09:15:16;;;;;;;13.25;2.05;;;;;;;;;;5107189;28;20036;-62
2021/11/30 09:17:44;;;;;;;17.40;2.05;;;;;;;;;;5106646;28;20071;-62
2021/11/30 09:20:11;;;;;;;26.05;2.90;;;;;;;;;;5109442;28;20447;-62
2021/11/30 09:22:37;;;;;;;22.30;3.22;;;;;;;;;;5105845;28;20063;-62
2021/11/30 09:25:04;;;;;;;23.25;3.60;;;;;;;;;;5110307;28;20039;-62
2021/11/30 09:27:31;;;;;;;19.48;2.50;;;;;;;;;;5107011;28;20047;-62
2021/11/30 09:29:57;;;;;;;30.98;3.20;;;;;;;;;;5107903;28;20084;-62
2021/11/30 09:32:29;;;;;;;19.42;2.47;;;;;;;;;;5106051;28;20054;-62
2021/11/30 09:34:56;;;;;;;22.65;2.97;;;;;;;;;;5107245;28;20510;-62
2021/11/30 09:37:23;;;;;;;20.25;2.40;;;;;;;;;;5085675;28;20076;-62
2021/11/30 09:39:49;;;;;;;25.15;3.08;;;;;;;;;;5090621;28;20509;-62
2021/11/30 09:42:17;;;;;;;16.65;2.78;;;;;;;;;;5072880;28;20052;-62
2021/11/30 09:44:45;;;;;;;16.98;2.95;;;;;;;;;;5091311;28;20045;-62
2021/11/30 09:47:12;;;;;;;18.75;2.78;;;;;;;;;;5090105;28;20051;-62
2021/11/30 09:49:39;;;;;;;16.70;2.70;;;;;;;;;;5090872;28;20055;-63
2021/11/30 09:52:06;;;;;;;18.40;3.05;;;;;;;;;;5090870;28;20063;-62
2021/11/30 09:54:32;;;;;;;16.60;2.60;;;;;;;;;;5092549;28;20513;-62
2021/11/30 09:56:59;;;;;;;21.95;2.10;;;;;;;;;;5094757;28;20074;-62
2021/11/30 09:59:25;;;;;;;27.23;3.70;;;;;;;;;;5094880;28;20040;-62
2021/11/30 10:01:51;;;;;;;19.80;2.92;;;;;;;;;;5094025;28;20124;-62
2021/11/30 10:04:18;;;;;;;17.48;2.97;;;;;;;;;;5076648;28;20105;-62
2021/11/30 10:06:44;;;;;;;18.75;2.72;;;;;;;;;;5094876;28;20440;-62
2021/11/30 10:09:17;;;;;;;17.48;3.33;;;;;;;;;;5093824;28;20475;-62
2021/11/30 10:11:43;;;;;;;23.23;2.90;;;;;;;;;;5094622;28;20040;-62
2021/11/30 10:14:23;;;;;;;20.05;3.58;;;;;;;;;;5093632;28;20040;-62
2021/11/30 10:17:08;;;;;;;19.95;3.38;;;;;;;;;;5076260;28;20063;-60
2021/11/30 10:19:35;;;;;;;20.27;3.00;;;;;;;;;;5094327;28;20056;-60
2021/11/30 10:22:01;;;;;;;25.75;3.38;;;;;;;;;;5093724;28;20039;-60
2021/11/30 10:24:27;;;;;;;23.27;3.28;;;;;;;;;;5094237;28;20106;-60
2021/11/30 10:26:55;;;;;;;24.50;3.97;;;;;;;;;;5094328;28;20388;-60
2021/11/30 10:29:22;;;;;;;20.80;2.92;;;;;;;;;;5093176;28;20087;-60
2021/11/30 10:31:50;;;;;;;16.67;2.83;;;;;;;;;;5094100;28;20047;-60
2021/11/30 10:34:18;;;;;;;20.25;4.25;;;;;;;;;;5104115;28;20036;-60
2021/11/30 10:36:45;;;;;;;20.67;2.75;;;;;;;;;;5096905;28;20089;-60
2021/11/30 10:39:15;;;;;;;23.35;3.53;;;;;;;;;;5094095;28;20041;-60
2021/11/30 10:41:42;;;;;;;19.85;3.95;;;;;;;;;;5093779;28;20040;-60
2021/11/30 10:44:08;;;;;;;12.75;2.28;;;;;;;;;;5093417;28;20028;-60
2021/11/30 10:46:36;;;;;;;19.63;2.80;;;;;;;;;;5094128;28;20123;-60
2021/11/30 10:49:03;;;;;;;18.15;2.58;;;;;;;;;;5075735;28;20138;-60
2021/11/30 10:51:40;;;;;;;20.73;2.70;;;;;;;;;;5074723;28;20189;-60
2021/11/30 10:54:06;;;;;;;28.88;3.05;;;;;;;;;;5093637;28;20036;-60
2021/11/30 10:56:32;;;;;;;12.90;2.60;;;;;;;;;;5093178;28;20040;-60
2021/11/30 10:58:59;;;;;;;19.42;3.60;;;;;;;;;;5075303;28;20050;-60
2021/11/30 11:01:26;;;;;;;24.98;4.05;;;;;;;;;;5093792;28;20059;-60
2021/11/30 11:04:07;;;;;;;22.95;3.20;;;;;;;;;;5092641;28;20093;-60
2021/11/30 11:06:36;;;;;;;23.33;3.42;;;;;;;;;;5093532;28;20079;-60
2021/11/30 11:09:11;;;;;;;17.45;2.80;;;;;;;;;;5093232;28;20086;-60
2021/11/30 11:11:38;;;;;;;35.78;4.75;;;;;;;;;;5092559;28;20097;-60
2021/11/30 11:14:06;;;;;;;26.58;2.75;;;;;;;;;;5075248;28;20110;-60
2021/11/30 11:16:33;;;;;;;20.55;3.58;;;;;;;;;;5093458;28;20036;-60
2021/11/30 11:19:01;;;;;;;19.30;3.03;;;;;;;;;;5092290;28;20044;-60
2021/11/30 11:21:29;;;;;;;20.55;3.63;;;;;;;;;;5093166;28;20047;-60
2021/11/30 11:23:55;;;;;;;30.80;3.67;;;;;;;;;;5093437;28;20044;-60
2021/11/30 11:26:25;;;;;;;26.63;4.78;;;;;;;;;;5092264;28;20040;-60
2021/11/30 11:28:51;;;;;;;19.45;3.97;;;;;;;;;;5093185;28;20077;-60
2021/11/30 11:31:18;;;;;;;18.27;3.00;;;;;;;;;;5107012;28;20059;-60
2021/11/30 11:33:44;;;;;;;16.95;2.88;;;;;;;;;;5111082;28;20130;-60
2021/11/30 11:36:11;;;;;;;24.20;3.35;;;;;;;;;;5108855;28;20507;-60
2021/11/30 11:38:38;;;;;;;27.50;3.47;;;;;;;;;;5106966;28;20036;-60
2021/11/30 11:41:04;;;;;;;16.33;3.15;;;;;;;;;;5112148;28;20050;-60
2021/11/30 11:43:30;;;;;;;23.60;3.50;;;;;;;;;;5107014;28;20039;-60
2021/11/30 11:45:57;;;;;;;26.75;3.63;;;;;;;;;;5110851;28;20042;-60
2021/11/30 11:48:26;;;;;;;26.50;3.90;;;;;;;;;;5108376;28;20074;-60
2021/11/30 11:50:55;;;;;;;25.45;3.42;;;;;;;;;;5087755;28;20122;-60
2021/11/30 11:53:29;;;;;;;24.30;3.85;;;;;;;;;;5090948;28;20048;-60
2021/11/30 11:56:16;;;;;;;32.58;4.18;;;;;;;;;;5088368;28;20122;-60
2021/11/30 11:58:44;;;;;;;26.25;4.35;;;;;;;;;;5089915;28;20039;-60
2021/11/30 12:01:14;;;;;;;22.73;3.20;;;;;;;;;;5087658;28;20115;-60
2021/11/30 12:03:52;;;;;;;34.33;5.22;;;;;;;;;;5089657;28;20055;-60
2021/11/30 12:06:21;;;;;;;22.83;3.60;;;;;;;;;;5087450;28;20043;-60
2021/11/30 12:09:06;;;;;;;23.80;4.00;;;;;;;;;;5089701;28;20501;-60
2021/11/30 12:11:35;;;;;;;28.02;4.60;;;;;;;;;;5086851;28;20050;-60
2021/11/30 12:14:08;;;;;;;28.85;4.13;;;;;;;;;;5088696;28;20465;-60
2021/11/30 12:16:54;;;;;;;23.90;4.68;;;;;;;;;;5086205;28;20044;-60
2021/11/30 12:19:27;;;;;;;17.38;3.53;;;;;;;;;;5087362;28;20392;-60
2021/11/30 12:21:54;;;;;;;26.67;4.03;;;;;;;;;;5086538;28;20028;-60
2021/11/30 12:24:37;;;;;;;26.63;4.05;;;;;;;;;;5085127;28;20041;-60
2021/11/30 12:27:14;;;;;;;24.00;4.13;;;;;;;;;;5089527;28;20479;-60
2021/11/30 12:29:41;;;;;;;26.38;4.38;;;;;;;;;;5085071;28;20503;-60
2021/11/30 12:32:15;;;;;;;32.70;4.43;;;;;;;;;;5090466;28;20036;-60
2021/11/30 12:34:46;;;;;;;26.65;3.75;;;;;;;;;;5087388;28;20051;-60
2021/11/30 12:37:15;;;;;;;21.70;3.33;;;;;;;;;;5087627;28;20122;-60
2021/11/30 12:40:02;;;;;;;36.92;5.50;;;;;;;;;;5091243;28;20047;-60
2021/11/30 12:42:29;;;;;;;34.65;3.85;;;;;;;;;;5087016;28;20047;-60
2021/11/30 12:44:56;;;;;;;31.60;4.13;;;;;;;;;;5090705;28;20040;-60
2021/11/30 12:47:24;;;;;;;30.33;3.78;;;;;;;;;;5085053;28;20048;-60
2021/11/30 12:49:50;;;;;;;36.78;3.47;;;;;;;;;;5090703;28;20443;-60
2021/11/30 12:52:18;;;;;;;36.42;4.40;;;;;;;;;;5108188;28;20428;-60
2021/11/30 12:54:46;;;;;;;29.17;4.22;;;;;;;;;;5109471;28;20043;-60
2021/11/30 12:57:18;;;;;;;31.13;4.32;;;;;;;;;;5107153;28;20224;-60
2021/11/30 12:59:45;;;;;;;27.55;3.67;;;;;;;;;;5105279;28;20043;-60
2021/11/30 13:02:23;;;;;;;40.47;4.28;;;;;;;;;;5109061;28;20050;-60
2021/11/30 13:04:51;;;;;;;26.98;4.00;;;;;;;;;;5106857;28;20057;-60
2021/11/30 13:07:19;;;;;;;27.83;3.90;;;;;;;;;;5109883;28;20036;-60
2021/11/30 13:09:47;;;;;;;25.50;3.50;;;;;;;;;;5107350;28;20059;-60
2021/11/30 13:12:18;;;;;;;29.38;4.43;;;;;;;;;;5089117;28;20039;-60
2021/11/30 13:14:45;;;;;;;27.45;3.60;;;;;;;;;;5110877;28;20414;-60
2021/11/30 13:17:12;;;;;;;45.70;4.43;;;;;;;;;;5107464;28;20031;-60
2021/11/30 13:19:39;;;;;;;23.85;4.35;;;;;;;;;;5108559;28;20131;-60
2021/11/30 13:22:06;;;;;;;33.38;5.63;;;;;;;;;;5072286;28;20134;-60
2021/11/30 13:24:34;;;;;;;34.45;4.28;;;;;;;;;;5107308;28;20038;-59
2021/11/30 13:27:08;;;;;;;33.97;6.07;;;;;;;;;;5107334;28;20043;-60
2021/11/30 13:29:35;;;;;;;28.20;4.63;;;;;;;;;;5111001;28;20058;-60
2021/11/30 13:32:01;;;;;;;27.33;3.63;;;;;;;;;;5113574;28;20035;-60
2021/11/30 13:34:28;;;;;;;28.60;4.38;;;;;;;;;;5111889;28;20083;-60
2021/11/30 13:36:54;;;;;;;29.42;4.90;;;;;;;;;;5112021;28;20401;-60
2021/11/30 13:39:20;;;;;;;40.80;4.25;;;;;;;;;;5112612;28;20066;-60
2021/11/30 13:41:46;;;;;;;39.15;3.60;;;;;;;;;;5109045;28;20398;-60
2021/11/30 13:44:12;;;;;;;27.73;4.40;;;;;;;;;;5112982;28;20042;-59
2021/11/30 13:46:41;;;;;;;27.73;4.00;;;;;;;;;;5113789;28;20060;-60
2021/11/30 13:49:08;;;;;;;23.20;4.10;;;;;;;;;;5109626;28;20036;-60
2021/11/30 13:51:36;;;;;;;33.70;4.03;;;;;;;;;;5113504;28;20097;-60
2021/11/30 13:54:04;;;;;;;29.40;3.92;;;;;;;;;;5108659;28;20088;-60
2021/11/30 13:56:35;;;;;;;29.95;3.20;;;;;;;;;;5085053;28;20060;-60
2021/11/30 14:01:45;;;;;;;26.58;3.25;;;;;;;;;;5093935;28;20052;-60
2021/11/30 14:04:17;;;;;;;30.90;3.70;;;;;;;;;;5094862;28;20177;-60
2021/11/30 14:06:46;;;;;;;18.35;2.40;;;;;;;;;;5075901;28;20483;-60
2021/11/30 14:09:13;;;;;;;29.27;4.43;;;;;;;;;;5076513;28;20620;-60
2021/11/30 14:11:45;;;;;;;24.40;3.05;;;;;;;;;;5106896;28;20096;-60
2021/11/30 14:14:12;;;;;;;24.48;4.03;;;;;;;;;;5106127;28;20040;-60
2021/11/30 14:16:48;;;;;;;28.55;3.45;;;;;;;;;;5110554;28;20035;-64
2021/11/30 14:19:14;;;;;;;29.15;3.15;;;;;;;;;;5106133;28;20039;-60
2021/11/30 14:21:41;;;;;;;28.15;3.90;;;;;;;;;;5112154;28;20122;-60
2021/11/30 14:24:10;;;;;;;21.05;3.20;;;;;;;;;;5091567;28;20984;-60
2021/11/30 14:26:38;;;;;;;27.13;4.30;;;;;;;;;;5086536;28;20050;-60
2021/11/30 14:29:09;;;;;;;20.58;2.88;;;;;;;;;;5086699;28;20126;-60
2021/11/30 14:31:54;;;;;;;26.70;4.70;;;;;;;;;;5107042;28;20052;-60
2021/11/30 14:34:21;;;;;;;28.40;3.75;;;;;;;;;;5105157;28;20042;-59
2021/11/30 14:36:47;;;;;;;34.50;4.53;;;;;;;;;;5088699;28;20071;-59
2021/11/30 14:39:25;;;;;;;30.20;3.83;;;;;;;;;;5105200;28;20039;-59